Etusivu
METAR-TAF:

METAR-TAF

Lentoasemat :

Norrköping, Ruotsi

Leveyspiiri: 58-35N, Pituuspiiri: 016-09E, korkeus merenpinnasta: 34 m

Tämänhetkinen sää

Tämä raportti tehtiin 35 minuuttia sitten, kello 14.20 UTC
Tuuli 8 kn etelästä/lounaasta
Lämpötila 2°C
Kosteus 87%
Ilmanpaine 996 hPa
Näkyvyys 10 km tai enemmän
Hajonneita pilviä 2400 ft:n korkeudessa

METAR: ESSP 131420Z 20008KT 9999 BKN024 02/M00 Q0996 R27/720180

Aika: 15:55 (14:55 UTC)

Sääennuste

Tämä raportti tehtiin 25 minuuttia sitten, kello 14.30 UTC
Ennuste voimassa 13. päivästä klo 15 UTC - 13. päivään klo 23 UTC
Tuuli 12 kn etelästä
Näkyvyys 10 km tai enemmän
Hajonneita pilviä 1800 ft:n korkeudessa
Ajoittain
13. päivästä klo 19 UTC - 13. päivään klo 23 UTC
Näkyvyys: 2500 m
Pilvistä 1200 ft:n korkeudessa
lumisadetta

TAF: ESSP 131430Z 1315/1323 19012KT 9999 BKN018 TEMPO 1319/1323 2500 SN OVC012

Säähavainnot ja -ennusteet yli 4000 lentoasemalta (METAR- ja TAF-raportit).

Käytössä olevat sääasemat on merkitty karttaan keltaisilla ja punaisilla pisteillä.

Aseta hiiri pisteen päälle nähdäksesi sääaseman nimen.

Klikkaa sitten nähdäksesi säähavainnot ja -ennusteet.

Kartan vaihtaminen: klikkaa mustalla rastilla varustettuja vihreitä pisteitä, niin voit zoomata sisään; viivalla varustettua vihreää pistettä, niin voit zoomata ulos tai vihreitä nuolia, niin pääset viereisille kartoille.


METAR-TAF: